Station Historical Data
Daily Summary for September 15, 2017 Units:  Metric    English   Both
« Previous Day
Next Day »
Daily Weekly Monthly Yearly Custom
  High: Low: Average:
Temperature: -17.8 °C -12.8 °C -10.3 °C
Dew Point: -17.8 °C -13.3 °C -11.9 °C
Humidity: Humidity % 67 % 83 %
Wind Speed: 0 km/h 0 km/h 4.2 km/h
Wind Gust: 0 km/h - -
Wind:- - South
Pressure: 0 hPa 34256.2 hPa -
Precipitation: 0 mm    
Historical Graphs
 
 
Tabular Data for September 15, 2017
Time Temperature Dew Point Pressure Wind Wind Speed Wind Gust Humidity Rainfall Rate (Hourly) solar Conditions
-17.8 °C -17.8 °C 0 hPa Calm     Humidity % 0 mm SoftwareType W/m2 Conditions
00:03 -12.2 °C -12.7 °C 34256.2 hPa SSW 2.3 km/h 7.6 km/h 94 % 0 mm meteobridge W/m2
00:09 -12.2 °C -12.7 °C 34256.2 hPa South 9.8 km/h 9.8 km/h 94 % 0 mm meteobridge W/m2
00:15 -12.1 °C -12.6 °C 34256.2 hPa SW 5.6 km/h 8 km/h 94 % 0 mm meteobridge W/m2
00:22 -12.1 °C -12.7 °C 34256.2 hPa SSE 14 km/h 14 km/h 93 % 0 mm meteobridge W/m2
00:28 -11.9 °C -12.5 °C 34256.2 hPa SW 9.8 km/h 9.8 km/h 93 % 0 mm meteobridge W/m2
00:35 -11.7 °C -12.4 °C 34256.2 hPa SSE 8.9 km/h 8.9 km/h 92 % 0 mm meteobridge W/m2
00:42 -11.7 °C -12.3 °C 34256.2 hPa SW 4.2 km/h 6.4 km/h 92 % 0 mm meteobridge W/m2
00:48 -11.7 °C -12.3 °C 34256.2 hPa SW 14.5 km/h 14.5 km/h 92 % 0 mm meteobridge W/m2
00:55 -11.6 °C -12.3 °C 34256.2 hPa SSE 2.3 km/h 5.1 km/h 92 % 0 mm meteobridge W/m2
01:00 -11.6 °C -12.3 °C 34256.2 hPa SW 3.4 km/h 6.4 km/h 92 % 0 mm meteobridge W/m2
01:07 -11.5 °C -12.3 °C 34256.2 hPa SSW 2.9 km/h 2.9 km/h 91 % 0 mm meteobridge W/m2
01:14 -11.4 °C -12.2 °C 34256.2 hPa Calm     91 % 0 mm meteobridge W/m2
01:20 -11.4 °C -12.3 °C 34256.2 hPa WNW 9.8 km/h 9.8 km/h 90 % 0 mm meteobridge W/m2
01:26 -11.4 °C -12.3 °C 34256.2 hPa NNE 8 km/h 8 km/h 90 % 0 mm meteobridge W/m2
01:32 -11.3 °C -12.2 °C 34256.2 hPa SW 10.3 km/h 10.3 km/h 90 % 0 mm meteobridge W/m2
01:38 -11.3 °C -12.3 °C 34256.2 hPa Calm   5.1 km/h 89 % 0 mm meteobridge W/m2
01:43 -11.3 °C -12.3 °C 34256.2 hPa ENE 6.9 km/h 6.9 km/h 89 % 0 mm meteobridge W/m2
01:50 -11.3 °C -12.3 °C 34256.2 hPa SSW 7.6 km/h 22 km/h 89 % 0 mm meteobridge W/m2
01:56 -11.3 °C -12.3 °C 34256.2 hPa NE 3.4 km/h 3.4 km/h 89 % 0 mm meteobridge W/m2
02:01 -11.3 °C -12.3 °C 34256.2 hPa SSW 4.2 km/h 4.2 km/h 89 % 0 mm meteobridge W/m2
02:08 -11.3 °C -12.3 °C 34256.2 hPa SW 2.9 km/h 5.1 km/h 89 % 0 mm meteobridge W/m2
02:14 -11.3 °C -12.3 °C 34256.2 hPa SSE 5.6 km/h 5.6 km/h 89 % 0 mm meteobridge W/m2
02:20 -11.3 °C -12.3 °C 34256.2 hPa SSE 5.1 km/h 5.1 km/h 89 % 0 mm meteobridge W/m2
02:26 -11.3 °C -12.3 °C 34256.2 hPa SSW 6.4 km/h 19.2 km/h 89 % 0 mm meteobridge W/m2
02:32 -11.3 °C -12.3 °C 34256.2 hPa SE 5.1 km/h 6.4 km/h 89 % 0 mm meteobridge W/m2
02:38 -11.4 °C -12.4 °C 34256.2 hPa SE 6.9 km/h 7.6 km/h 89 % 0 mm meteobridge W/m2
02:44 -11.4 °C -12.4 °C 34256.2 hPa South 15.6 km/h 20.9 km/h 89 % 0 mm meteobridge W/m2
02:50 -11.4 °C -12.4 °C 34256.2 hPa SW 6.4 km/h 6.4 km/h 89 % 0 mm meteobridge W/m2
02:56 -11.4 °C -12.4 °C 34256.2 hPa SSE 15 km/h 15 km/h 89 % 0 mm meteobridge W/m2
03:03 -11.4 °C -12.4 °C 34256.2 hPa SE 18.7 km/h 18.7 km/h 89 % 0 mm meteobridge W/m2
03:09 -11.4 °C -12.4 °C 34256.2 hPa SSW 6.9 km/h 8.9 km/h 89 % 0 mm meteobridge W/m2
03:15 -11.4 °C -12.3 °C 34256.2 hPa SW 2.3 km/h 2.3 km/h 90 % 0 mm meteobridge W/m2
03:21 -11.5 °C -12.4 °C 34256.2 hPa South 7.6 km/h 7.6 km/h 90 % 0 mm meteobridge W/m2
03:27 -11.6 °C -12.5 °C 34256.2 hPa NE 22.5 km/h 22.5 km/h 90 % 0 mm meteobridge W/m2
03:34 -11.6 °C -12.3 °C 34256.2 hPa South 9.3 km/h 9.3 km/h 91 % 0 mm meteobridge W/m2
03:40 -11.5 °C -12.4 °C 34293.4 hPa SSE 2.9 km/h 6.9 km/h 90 % 0 mm meteobridge W/m2
03:47 -11.4 °C -12.3 °C 34293.4 hPa Calm   16.3 km/h 90 % 0 mm meteobridge W/m2
03:53 -11.4 °C -12.3 °C 34293.4 hPa NNE 8 km/h 9.3 km/h 90 % 0 mm meteobridge W/m2
04:00 -11.4 °C -12.3 °C 34293.4 hPa SSW 4.2 km/h 19.2 km/h 90 % 0 mm meteobridge W/m2
04:06 -11.4 °C -12.3 °C 34293.4 hPa SSE 2.9 km/h 2.9 km/h 90 % 0 mm meteobridge W/m2
04:12 -11.4 °C -12.3 °C 34293.4 hPa Calm     90 % 0 mm meteobridge W/m2
04:18 -11.4 °C -12.2 °C 34293.4 hPa SW 5.1 km/h 5.1 km/h 91 % 0 mm meteobridge W/m2
04:24 -11.4 °C -12.3 °C 34293.4 hPa SW 5.6 km/h -2586.8 km/h 90 % 0 mm meteobridge W/m2
04:30 -11.4 °C -12.2 °C 34293.4 hPa South 2.9 km/h 2.9 km/h 91 % 0 mm meteobridge W/m2
04:36 -11.4 °C -12.2 °C 34293.4 hPa WSW 7.6 km/h 7.6 km/h 91 % 0 mm meteobridge W/m2
04:43 -11.4 °C -12.2 °C 34293.4 hPa SW 6.9 km/h 6.9 km/h 91 % 0 mm meteobridge W/m2
04:49 -11.3 °C -12.1 °C 34293.4 hPa SSW 10.3 km/h 10.3 km/h 91 % 0 mm meteobridge W/m2
04:55 -11.4 °C -12.2 °C 34293.4 hPa SW 7.6 km/h 7.6 km/h 91 % 0 mm meteobridge W/m2
05:02 -11.3 °C -12.1 °C 34293.4 hPa SW 8 km/h 8 km/h 91 % 0 mm meteobridge W/m2
05:08 -11.3 °C -12.1 °C 34327.3 hPa Calm     91 % 0 mm meteobridge W/m2
05:21 -11.3 °C -12.1 °C 34327.3 hPa SSE 2.3 km/h 6.9 km/h 91 % 0 mm meteobridge W/m2
05:23 -11.3 °C -12.1 °C 34327.3 hPa SSW 8.9 km/h 8.9 km/h 91 % 0 mm meteobridge W/m2
05:28 -11.3 °C -12.1 °C 34327.3 hPa SSE 3.4 km/h 3.4 km/h 91 % 0 mm meteobridge W/m2
05:34 -11.3 °C -12.1 °C 34327.3 hPa WSW 2.9 km/h 3.4 km/h 91 % 0 mm meteobridge W/m2
05:40 -11.3 °C -12.1 °C 34327.3 hPa WNW 8 km/h 8 km/h 92 % 0 mm meteobridge W/m2
05:47 -11.3 °C -12.1 °C 34327.3 hPa SSW 9.3 km/h 9.3 km/h 92 % 0 mm meteobridge W/m2
05:53 -11.3 °C -12.1 °C 34327.3 hPa WSW 5.6 km/h 5.6 km/h 92 % 0 mm meteobridge W/m2
06:00 -11.3 °C -12.1 °C 34327.3 hPa SW 9.3 km/h 9.3 km/h 92 % 0 mm meteobridge W/m2
06:04 -11.3 °C -12.1 °C 34327.3 hPa SSE 3.4 km/h 5.6 km/h 92 % 0 mm meteobridge W/m2
06:11 -11.3 °C -12.1 °C 34327.3 hPa South 2.9 km/h 6.4 km/h 92 % 0 mm meteobridge W/m2
06:13 -11.3 °C -12.1 °C 34327.3 hPa North 5.1 km/h 5.1 km/h 92 % 0 mm meteobridge W/m2
06:19 -11.3 °C -12.1 °C 34327.3 hPa ESE 14 km/h -2586.8 km/h 92 % 0 mm meteobridge W/m2
06:25 -11.3 °C -12.1 °C 34327.3 hPa South 2.9 km/h 2.9 km/h 92 % 0 mm meteobridge W/m2
06:32 -11.3 °C -12.1 °C 34327.3 hPa WSW 2.9 km/h 2.9 km/h 92 % 0 mm meteobridge W/m2
06:38 -11.3 °C -12.1 °C 34327.3 hPa Calm   2.9 km/h 92 % 0 mm meteobridge W/m2
06:44 -11.3 °C -12.1 °C 34327.3 hPa SSW 4.2 km/h 8 km/h 92 % 0 mm meteobridge W/m2
06:51 -11.3 °C -12.1 °C 34327.3 hPa SSW 4.2 km/h -2586.8 km/h 92 % 0 mm meteobridge W/m2
06:58 -11.3 °C -12.1 °C 34361.1 hPa Calm   7.6 km/h 92 % 0 mm meteobridge W/m2
07:04 -11.3 °C -12.1 °C 34361.1 hPa SSW 2.9 km/h 4.2 km/h 92 % 0 mm meteobridge W/m2
07:11 -11.3 °C -12 °C 34361.1 hPa SSW 9.3 km/h 9.3 km/h 92 % 0 mm meteobridge W/m2
07:17 -11.3 °C -11.9 °C 34361.1 hPa SSE 2.9 km/h 2.9 km/h 93 % 0 mm meteobridge W/m2
07:23 -11.3 °C -11.9 °C 34361.1 hPa Calm     93 % 0 mm meteobridge W/m2
07:30 -11.2 °C -11.8 °C 34361.1 hPa Calm     93 % 0 mm meteobridge W/m2
07:36 -11.2 °C -11.8 °C 34361.1 hPa ESE 5.1 km/h 5.1 km/h 93 % 0 mm meteobridge W/m2
07:42 -11.1 °C -11.7 °C 34361.1 hPa Calm   16.3 km/h 93 % 0 mm meteobridge W/m2
07:49 -11.1 °C -11.7 °C 34361.1 hPa SSW 5.1 km/h 5.1 km/h 93 % 0 mm meteobridge W/m2
07:55 -11.1 °C -11.7 °C 34361.1 hPa SSE 6.4 km/h 6.4 km/h 93 % 0 mm meteobridge W/m2
08:02 -11.1 °C -11.7 °C 34361.1 hPa South 6.9 km/h 6.9 km/h 93 % 0 mm meteobridge W/m2
08:08 -11.1 °C -11.7 °C 34361.1 hPa SSW 3.4 km/h -2586.8 km/h 93 % 0 mm meteobridge W/m2
08:15 -11 °C -11.6 °C 34361.1 hPa SSE 4.2 km/h -2586.8 km/h 93 % 0 mm meteobridge W/m2
08:21 -10.8 °C -11.6 °C 34361.1 hPa SW 8 km/h 8 km/h 92 % 0 mm meteobridge W/m2
08:27 -10.9 °C -11.6 °C 34361.1 hPa SSE 7.6 km/h 7.6 km/h 92 % 0 mm meteobridge W/m2
08:34 -10.7 °C -11.4 °C 34361.1 hPa SSE 2.3 km/h 2.3 km/h 92 % 0 mm meteobridge W/m2
08:41 -10.6 °C -11.3 °C 34395 hPa WSW 3.4 km/h 3.4 km/h 92 % 0 mm meteobridge W/m2
08:46 -10.5 °C -11.2 °C 34395 hPa Calm     92 % 0 mm meteobridge W/m2
08:47 -10.5 °C -11.2 °C 34395 hPa Calm   2.9 km/h 92 % 0 mm meteobridge W/m2
08:52 -10.4 °C -11.2 °C 34395 hPa SSW 8.9 km/h 8.9 km/h 91 % 0 mm meteobridge W/m2
08:59 -10.3 °C -11.1 °C 34395 hPa SSE 9.8 km/h -2586.8 km/h 91 % 0 mm meteobridge W/m2
09:15 -10.3 °C -11.2 °C 34395 hPa SSE 2.9 km/h 6.9 km/h 90 % 0 mm meteobridge W/m2
09:21 -10.3 °C -11.2 °C 34395 hPa SSE 7.6 km/h 7.6 km/h 90 % 0 mm meteobridge W/m2
09:26 -10.3 °C -11.2 °C 34395 hPa SSE 6.9 km/h 6.9 km/h 90 % 0 mm meteobridge W/m2
09:32 -10.3 °C -11.3 °C 34395 hPa SSW 6.4 km/h 6.4 km/h 89 % 0 mm meteobridge W/m2
09:38 -10.3 °C -11.3 °C 34395 hPa Calm   10.3 km/h 89 % 0 mm meteobridge W/m2
09:45 -10.1 °C -11.1 °C 34395 hPa SSW 19.2 km/h 19.2 km/h 89 % 0 mm meteobridge W/m2
09:51 -10.1 °C -11.3 °C 34395 hPa SW 3.4 km/h 3.4 km/h 87 % 0 mm meteobridge W/m2
09:57 -10 °C -11 °C 34395 hPa SSW 15.6 km/h 15.6 km/h 89 % 0 mm meteobridge W/m2
10:05 -9.7 °C -10.9 °C 34395 hPa WSW 5.6 km/h 8 km/h 87 % 0 mm meteobridge W/m2
10:11 -9.6 °C -10.9 °C 34395 hPa South 2.3 km/h 8 km/h 86 % 0 mm meteobridge W/m2
10:17 -9.5 °C -10.9 °C 34395 hPa ENE 14 km/h 14 km/h 85 % 0 mm meteobridge W/m2
10:22 -9.4 °C -10.8 °C 34395 hPa ESE 2.3 km/h 2.3 km/h 85 % 0 mm meteobridge W/m2
10:28 -9.5 °C -11 °C 34428.8 hPa South 6.9 km/h 10.3 km/h 84 % 0 mm meteobridge W/m2
10:35 -9.6 °C -11.1 °C 34428.8 hPa SE 14 km/h 14 km/h 84 % 0 mm meteobridge W/m2
10:41 -9.3 °C -10.7 °C 34428.8 hPa SSW 2.3 km/h 3.4 km/h 85 % 0 mm meteobridge W/m2
10:47 -9.2 °C -10.7 °C 34428.8 hPa Calm     84 % 0 mm meteobridge W/m2
10:53 -9.3 °C -10.9 °C 34395 hPa SSW 9.8 km/h 12.2 km/h 83 % 0 mm meteobridge W/m2
11:00 -9 °C -10.6 °C 34395 hPa WSW 4.2 km/h 4.2 km/h 83 % 0 mm meteobridge W/m2
11:06 -8.8 °C -10.4 °C 34395 hPa WSW 7.6 km/h 7.6 km/h 83 % 0 mm meteobridge W/m2
11:13 -8.8 °C -10.6 °C 34395 hPa South 6.4 km/h 9.3 km/h 82 % 0 mm meteobridge W/m2
11:20 -8.7 °C -10.6 °C 34395 hPa SSE 9.3 km/h 9.3 km/h 80 % 0 mm meteobridge W/m2
11:27 -8.4 °C -10.3 °C 34395 hPa SW 5.1 km/h 5.6 km/h 80 % 0 mm meteobridge W/m2
11:33 -8.3 °C -10.3 °C 34395 hPa SSW 3.4 km/h 3.4 km/h 80 % 0 mm meteobridge W/m2
11:39 -8.6 °C -10.6 °C 34395 hPa South 3.4 km/h 3.4 km/h 79 % 0 mm meteobridge W/m2
11:46 -8.6 °C -10.6 °C 34395 hPa NNE 6.9 km/h 6.9 km/h 79 % 0 mm meteobridge W/m2
11:52 -8.6 °C -10.6 °C 34395 hPa Calm   5.6 km/h 79 % 0 mm meteobridge W/m2
11:57 -8.7 °C -10.7 °C 34395 hPa SSW 5.1 km/h 5.1 km/h 79 % 0 mm meteobridge W/m2
12:05 -8.9 °C -10.9 °C 34395 hPa SSW 2.9 km/h 2.9 km/h 79 % 0 mm meteobridge W/m2
12:11 -8.9 °C -10.9 °C 34395 hPa NNW 10.3 km/h -2586.8 km/h 79 % 0 mm meteobridge W/m2
12:35 -8.9 °C -10.8 °C 34395 hPa South 3.4 km/h 3.4 km/h 80 % 0 mm meteobridge W/m2
12:59 -8.7 °C -10.8 °C 34395 hPa SSW 11.6 km/h 11.6 km/h 78 % 0 mm meteobridge W/m2
13:05 -8.8 °C -10.9 °C 34395 hPa Calm   9.3 km/h 78 % 0 mm meteobridge W/m2
13:11 -8.8 °C -10.9 °C 34395 hPa SSE 8 km/h 8 km/h 78 % 0 mm meteobridge W/m2
13:17 -8.4 °C -10.7 °C 34395 hPa South 2.9 km/h 2.9 km/h 77 % 0 mm meteobridge W/m2
13:23 -8.2 °C -10.7 °C 34395 hPa SSW 2.9 km/h 7.6 km/h 75 % 0 mm meteobridge W/m2
13:29 -8.1 °C -10.7 °C 34395 hPa SSW 14 km/h 14 km/h 74 % 0 mm meteobridge W/m2
13:35 -8.2 °C -10.8 °C 34395 hPa SSW 6.4 km/h 6.4 km/h 74 % 0 mm meteobridge W/m2
13:41 -8.2 °C -10.8 °C 34395 hPa Calm   9.8 km/h 74 % 0 mm meteobridge W/m2
13:47 -8.2 °C -10.9 °C 34395 hPa South 9.3 km/h 10.3 km/h 73 % 0 mm meteobridge W/m2
13:53 -7.9 °C -10.5 °C 34395 hPa SSW 11.1 km/h 11.6 km/h 74 % 0 mm meteobridge W/m2
13:59 -7.9 °C -10.6 °C 34395 hPa SSW 8 km/h 8 km/h 74 % 0 mm meteobridge W/m2
14:05 -8.1 °C -10.8 °C 34395 hPa SSW 5.1 km/h 5.6 km/h 73 % 0 mm meteobridge W/m2
14:11 -8.2 °C -10.9 °C 34395 hPa SSW 5.1 km/h 5.1 km/h 73 % 0 mm meteobridge W/m2
14:17 -8.2 °C -10.8 °C 34395 hPa WSW 7.6 km/h 7.6 km/h 74 % 0 mm meteobridge W/m2
14:23 -8.2 °C -10.8 °C 34395 hPa SSW 5.6 km/h 5.6 km/h 74 % 0 mm meteobridge W/m2
14:29 -8.3 °C -11 °C 34395 hPa SSW 6.4 km/h 8.9 km/h 73 % 0 mm meteobridge W/m2
14:41 -8 °C -10.7 °C 34395 hPa SSE 2.9 km/h 9.8 km/h 73 % 0 mm meteobridge W/m2
14:47 -8.1 °C -10.9 °C 34395 hPa West 5.6 km/h 8 km/h 72 % 0 mm meteobridge W/m2
14:53 -8.1 °C -10.9 °C 34395 hPa WSW 4.2 km/h 4.2 km/h 72 % 0 mm meteobridge W/m2
14:59 -8.1 °C -10.9 °C 34395 hPa SSE 10.3 km/h 10.3 km/h 72 % 0 mm meteobridge W/m2
15:05 -8.2 °C -11.1 °C 34395 hPa South 6.4 km/h 10.3 km/h 71 % 0 mm meteobridge W/m2
15:12 -8.1 °C -11 °C 34361.1 hPa SW 3.4 km/h 7.6 km/h 71 % 0 mm meteobridge W/m2
15:19 -8.2 °C -11.2 °C 34361.1 hPa Calm   5.1 km/h 71 % 0 mm meteobridge W/m2
15:25 -8.3 °C -11.1 °C 34361.1 hPa SSW 6.4 km/h 7.6 km/h 72 % 0 mm meteobridge W/m2
15:31 -8.4 °C -11.3 °C 34361.1 hPa SSE 5.6 km/h 5.6 km/h 71 % 0 mm meteobridge W/m2
15:37 -8.3 °C -11.2 °C 34361.1 hPa Calm   3.4 km/h 71 % 0 mm meteobridge W/m2
15:43 -8.4 °C -11.3 °C 34361.1 hPa NE 6.4 km/h 6.4 km/h 71 % 0 mm meteobridge W/m2
15:49 -8.3 °C -11.3 °C 34361.1 hPa SSE 2.9 km/h 5.1 km/h 71 % 0 mm meteobridge W/m2
15:55 -8.3 °C -11.2 °C 34361.1 hPa SSE 3.4 km/h 3.4 km/h 71 % 0 mm meteobridge W/m2
16:01 -8.2 °C -11.3 °C 34361.1 hPa SSE 6.9 km/h 6.9 km/h 70 % 0 mm meteobridge W/m2
16:07 -8.2 °C -11.3 °C 34361.1 hPa SSE 9.3 km/h 9.3 km/h 70 % 0 mm meteobridge W/m2
16:13 -8.2 °C -11.3 °C 34361.1 hPa Calm   6.4 km/h 70 % 0 mm meteobridge W/m2
16:19 -8.1 °C -11.2 °C 34361.1 hPa SSE 5.1 km/h 5.1 km/h 70 % 0 mm meteobridge W/m2
16:25 -8.1 °C -11.3 °C 34361.1 hPa South 8.9 km/h 8.9 km/h 69 % 0 mm meteobridge W/m2
16:31 -8 °C -11.2 °C 34361.1 hPa South 6.4 km/h 6.4 km/h 69 % 0 mm meteobridge W/m2
16:37 -8.3 °C -11.4 °C 34361.1 hPa Calm     69 % 0 mm meteobridge W/m2
16:43 -8.4 °C -11.6 °C 34361.1 hPa Calm     69 % 0 mm meteobridge W/m2
16:49 -8.3 °C -11.4 °C 34361.1 hPa Calm     69 % 0 mm meteobridge W/m2
16:55 -8.3 °C -11.4 °C 34361.1 hPa SSW 9.3 km/h 9.3 km/h 69 % 0 mm meteobridge W/m2
17:01 -8.3 °C -11.4 °C 34361.1 hPa SSE 2.9 km/h 8.9 km/h 69 % 0 mm meteobridge W/m2
17:07 -8.3 °C -11.6 °C 34361.1 hPa Calm     68 % 0 mm meteobridge W/m2
17:13 -8.3 °C -11.5 °C 34361.1 hPa Calm   2.3 km/h 69 % 0 mm meteobridge W/m2
17:19 -8.6 °C -11.9 °C 34361.1 hPa SSW 5.6 km/h 6.4 km/h 68 % 0 mm meteobridge W/m2
17:25 -8.6 °C -11.9 °C 34361.1 hPa South 7.6 km/h 7.6 km/h 68 % 0 mm meteobridge W/m2
17:31 -8.6 °C -12 °C 34361.1 hPa Calm   6.4 km/h 67 % 0 mm meteobridge W/m2
17:37 -8.6 °C -12 °C 34361.1 hPa Calm   5.1 km/h 67 % 0 mm meteobridge W/m2
17:43 -8.7 °C -11.9 °C 34361.1 hPa SW 5.6 km/h 5.6 km/h 68 % 0 mm meteobridge W/m2
17:49 -8.8 °C -12.1 °C 34361.1 hPa SSW 6.9 km/h 6.9 km/h 68 % 0 mm meteobridge W/m2
17:55 -8.9 °C -12.1 °C 34361.1 hPa SW 2.9 km/h 3.4 km/h 69 % 0 mm meteobridge W/m2
18:01 -8.9 °C -12.1 °C 34361.1 hPa Calm   6.4 km/h 69 % 0 mm meteobridge W/m2
18:07 -8.9 °C -12.1 °C 34361.1 hPa Calm     69 % 0 mm meteobridge W/m2
18:14 -9 °C -12.2 °C 34361.1 hPa SSW 5.1 km/h 5.6 km/h 69 % 0 mm meteobridge W/m2
18:20 -9.1 °C -12.2 °C 34361.1 hPa Calm   4.2 km/h 70 % 0 mm meteobridge W/m2
18:26 -9.2 °C -12.2 °C 34361.1 hPa SSW 2.9 km/h 6.9 km/h 70 % 0 mm meteobridge W/m2
18:32 -9.2 °C -12.2 °C 34361.1 hPa SSW 2.3 km/h 4.2 km/h 70 % 0 mm meteobridge W/m2
18:38 -9.2 °C -12.1 °C 34361.1 hPa SSW 5.1 km/h 5.1 km/h 71 % 0 mm meteobridge W/m2
18:44 -9.2 °C -12.1 °C 34327.3 hPa SSW 2.9 km/h 2.9 km/h 71 % 0 mm meteobridge W/m2
18:50 -9.2 °C -12.1 °C 34327.3 hPa SSW 2.9 km/h 2.9 km/h 71 % 0 mm meteobridge W/m2
18:56 -9.3 °C -12.1 °C 34327.3 hPa Calm     72 % 0 mm meteobridge W/m2
19:02 -9.6 °C -12.4 °C 34327.3 hPa SSW 4.2 km/h 4.2 km/h 72 % 0 mm meteobridge W/m2
19:08 -9.7 °C -12.4 °C 34327.3 hPa SSW 2.3 km/h 2.3 km/h 73 % 0 mm meteobridge W/m2
19:14 -9.9 °C -12.6 °C 34327.3 hPa Calm   4.2 km/h 73 % 0 mm meteobridge W/m2
19:20 -10.1 °C -12.6 °C 34327.3 hPa Calm     74 % 0 mm meteobridge W/m2
19:26 -10.1 °C -12.7 °C 34327.3 hPa Calm     74 % 0 mm meteobridge W/m2
19:32 -10.2 °C -12.6 °C 34327.3 hPa Calm     75 % 0 mm meteobridge W/m2
19:38 -10.3 °C -12.7 °C 34327.3 hPa Calm     75 % 0 mm meteobridge W/m2
19:44 -10.3 °C -12.5 °C 34327.3 hPa Calm     77 % 0 mm meteobridge W/m2
19:51 -10.3 °C -12.5 °C 34327.3 hPa Calm     77 % 0 mm meteobridge W/m2
19:57 -10.3 °C -12.5 °C 34361.1 hPa Calm     77 % 0 mm meteobridge W/m2
20:03 -10.3 °C -12.4 °C 34361.1 hPa Calm     78 % 0 mm meteobridge W/m2
20:09 -10.3 °C -12.4 °C 34361.1 hPa Calm     78 % 0 mm meteobridge W/m2
20:15 -10.4 °C -12.4 °C 34361.1 hPa Calm     79 % 0 mm meteobridge W/m2
20:21 -10.4 °C -12.4 °C 34361.1 hPa Calm     79 % 0 mm meteobridge W/m2
20:27 -10.6 °C -12.6 °C 34361.1 hPa Calm     79 % 0 mm meteobridge W/m2
20:33 -10.6 °C -12.5 °C 34361.1 hPa Calm     80 % 0 mm meteobridge W/m2
20:39 -10.7 °C -12.6 °C 34361.1 hPa Calm     80 % 0 mm meteobridge W/m2
20:45 -10.8 °C -12.7 °C 34361.1 hPa Calm     80 % 0 mm meteobridge W/m2
20:51 -10.9 °C -12.8 °C 34361.1 hPa Calm     80 % 0 mm meteobridge W/m2
21:01 -11.1 °C -12.8 °C 34361.1 hPa Calm     81 % 0 mm meteobridge W/m2
21:08 -11.2 °C -12.9 °C 34361.1 hPa Calm     82 % 0 mm meteobridge W/m2
21:14 -11.3 °C -13 °C 34361.1 hPa Calm     82 % 0 mm meteobridge W/m2
21:20 -11.3 °C -12.9 °C 34361.1 hPa Calm     83 % 0 mm meteobridge W/m2
21:26 -11.4 °C -12.9 °C 34361.1 hPa Calm     83 % 0 mm meteobridge W/m2
21:32 -11.5 °C -12.9 °C 34361.1 hPa Calm     84 % 0 mm meteobridge W/m2
21:38 -11.5 °C -12.9 °C 34361.1 hPa Calm     84 % 0 mm meteobridge W/m2
21:44 -11.6 °C -12.9 °C 34361.1 hPa Calm     85 % 0 mm meteobridge W/m2
21:50 -11.7 °C -13 °C 34361.1 hPa Calm     85 % 0 mm meteobridge W/m2
21:56 -11.7 °C -13 °C 34361.1 hPa Calm     86 % 0 mm meteobridge W/m2
22:02 -11.8 °C -13 °C 34361.1 hPa Calm     87 % 0 mm meteobridge W/m2
22:08 -11.9 °C -13.1 °C 34361.1 hPa Calm     87 % 0 mm meteobridge W/m2
22:14 -11.9 °C -13.1 °C 34361.1 hPa Calm     87 % 0 mm meteobridge W/m2
22:20 -12.1 °C -13 °C 34361.1 hPa Calm     89 % 0 mm meteobridge W/m2
22:26 -12.1 °C -12.9 °C 34361.1 hPa Calm     90 % 0 mm meteobridge W/m2
22:32 -12.1 °C -12.9 °C 34361.1 hPa Calm     90 % 0 mm meteobridge W/m2
22:38 -12.1 °C -12.9 °C 34361.1 hPa Calm     90 % 0 mm meteobridge W/m2
22:44 -12.1 °C -12.8 °C 34361.1 hPa Calm     91 % 0 mm meteobridge W/m2
22:50 -12.1 °C -12.8 °C 34361.1 hPa Calm     91 % 0 mm meteobridge W/m2
22:56 -12.1 °C -12.9 °C 34361.1 hPa Calm     91 % 0 mm meteobridge W/m2
23:02 -12.1 °C -12.8 °C 34361.1 hPa Calm     92 % 0 mm meteobridge W/m2
23:08 -12.2 °C -12.8 °C 34361.1 hPa Calm     92 % 0 mm meteobridge W/m2
23:14 -12.2 °C -12.9 °C 34361.1 hPa Calm     92 % 0 mm meteobridge W/m2
23:20 -12.3 °C -13 °C 34361.1 hPa Calm     92 % 0 mm meteobridge W/m2
23:26 -12.4 °C -13.1 °C 34361.1 hPa Calm     92 % 0 mm meteobridge W/m2
23:32 -12.5 °C -13.1 °C 34361.1 hPa Calm     93 % 0 mm meteobridge W/m2
23:38 -12.6 °C -13.2 °C 34361.1 hPa Calm     93 % 0 mm meteobridge W/m2
23:44 -12.6 °C -13.2 °C 34361.1 hPa Calm     93 % 0 mm meteobridge W/m2
23:50 -12.7 °C -13.2 °C 34361.1 hPa Calm     94 % 0 mm meteobridge W/m2
23:56 -12.8 °C -13.3 °C 34361.1 hPa Calm     95 % 0 mm meteobridge W/m2
Juneau County Weather
Compliments of Weather Underground - 2.25 mb